CYHM

John C. Munro Hamilton International Airport

Hamilton, Ontario, Canada
METAR CYHM 182200Z 21008KT 15SM -SHRA FEW026CB SCT044 BKN084 OVC140 24/23 A2984 RMK CB2SC1AC3AC2 SLP103 DENSITY ALT 2100FT
Observed Flight Rules
Jun-18 @ 22:00 UTC (35 minutes ago) Visual Flight Rules
Wind Visibility Clouds Conditions
210° at 8 knots 15 miles
  • Few at 2,600' AGL
  • Scattered at 4,400' AGL
  • Broken at 8,400' AGL
  • Overcast at 14,000' AGL
  • Light Rain
Temperatures Readings
Current 24°C / 75°F
Dewpoint 23°C / 73°F
Humidity 94%
Altimeter 29.84" Hg
Pressure 1010.3 hPa
Elevation 238
METAR CYHM 182200Z 21008KT 15SM -SHRA FEW026CB SCT044 BKN084 OVC140 24/23 A2984 RMK CB2SC1AC3AC2 SLP103 DENSITY ALT 2100FT
Observed Flight Rules
Jun-18 @ 22:00 UTC
(35 minutes ago)
VFR
Wind Visibility
210° at 8 knots 15 miles
Clouds
  • Few at 2,600' AGL
  • Scattered at 4,400' AGL
  • Broken at 8,400' AGL
  • Overcast at 14,000' AGL
Conditions
  • Light Rain
Temperature Dewpoint
24°C / 75°F 23°C / 73°F
Humidity Altimeter Pressure
94% 29.84" Hg 1010.3 hPa